Kezdőlap
METAR-TAF:

METAR-TAF

Repülőterek :

Laconia Municipal Airport

Laconia, New Hampshire, Amerikai Egyesült Államok

földrajzi szélesség: 43-34N, földrajzi hosszúság: 071-25W, magasság: 166 m

Jelenlegi meteorológiai megfigyelések

A jelentés 21 perccel ezelõtt készült, 13:56 UTC
Dél-délnyugati szél 6 kt
Hőmérséklet -12°C
Páratartalom 66%
Légköri nyomás 1028 hPa
Látótávolság: 16.1 km
Derült ég

METAR: KLCI 211356Z AUTO 21006KT 10SM CLR M12/M17 A3037 RMK AO2 SLP297 T11171172 FZRANO

Idő: 09:17 (14:17 UTC)


TAF: hiányzik

Meteorológiai megfigyelések és előrejelzések több, mint 4000 repülőtéren (METAR és TAF jelentéseket).

A térképen piros és sárga pontok jelzik az elérhető meteorológiai állomásokat.

Mozgassa az egeret a pont fölött, hogy megjelenjen az állomás neve.

Azután kattintson az időjárási megfigyelések és előrejelzések megtekintéséhez.

A térkép megváltoztatása: kattintson a fekete keresztel jelölt zöld gombra ráközelítéshez, a vonallal jelölt zöld gombra távolításhoz, vagy a zöld nyilakra a szomszédos térképek eléréséhez.


METAR-TAF: